createdAt,value
2017-08-12T00:02:23.059Z,10.20
2017-08-12T00:04:50.581Z,9.73
2017-08-12T00:07:18.852Z,7.10
2017-08-12T00:09:47.129Z,6.97
2017-08-12T00:12:15.629Z,9.20
2017-08-12T00:14:43.116Z,8.60
2017-08-12T00:17:10.853Z,5.27
2017-08-12T00:19:38.348Z,6.40
2017-08-12T00:22:05.840Z,8.53
2017-08-12T00:24:33.357Z,8.30
2017-08-12T00:27:00.856Z,10.60
2017-08-12T00:29:28.372Z,8.70
2017-08-12T00:31:55.913Z,8.27
2017-08-12T00:34:23.416Z,7.67
2017-08-12T00:36:50.944Z,11.33
2017-08-12T00:39:18.456Z,6.80
2017-08-12T00:41:46.795Z,8.73
2017-08-12T00:44:14.330Z,6.43
2017-08-12T00:46:41.832Z,12.13
2017-08-12T00:49:09.358Z,11.00
2017-08-12T00:51:36.876Z,6.67
2017-08-12T00:54:05.148Z,13.57
2017-08-12T00:56:33.413Z,12.73
2017-08-12T00:59:01.128Z,11.10
2017-08-12T01:01:28.634Z,15.03
2017-08-12T01:03:56.137Z,14.17
2017-08-12T01:06:23.657Z,13.07
2017-08-12T01:08:51.166Z,9.90
2017-08-12T01:11:18.684Z,12.53
2017-08-12T01:13:46.988Z,11.57
2017-08-12T01:16:14.497Z,15.47
2017-08-12T01:18:42.003Z,7.10
2017-08-12T01:21:09.575Z,14.00
2017-08-12T01:23:37.109Z,11.93
2017-08-12T01:26:04.632Z,14.10
2017-08-12T01:28:32.164Z,11.40
2017-08-12T01:30:59.676Z,9.63
2017-08-12T01:33:27.940Z,13.97
2017-08-12T01:35:55.488Z,13.27
2017-08-12T01:38:22.990Z,11.43
2017-08-12T01:40:50.511Z,12.73
2017-08-12T01:43:18.218Z,12.50
2017-08-12T01:45:45.709Z,7.03
2017-08-12T01:48:13.215Z,9.37
2017-08-12T01:50:40.745Z,12.37
2017-08-12T01:53:08.261Z,15.40
2017-08-12T01:55:35.771Z,10.20
2017-08-12T01:58:03.364Z,6.90
2017-08-12T02:00:30.870Z,11.20
2017-08-12T02:02:58.388Z,11.13
2017-08-12T02:05:25.907Z,10.57
2017-08-12T02:07:53.425Z,14.40
2017-08-12T02:10:20.928Z,14.90
2017-08-12T02:12:49.231Z,12.03
2017-08-12T02:15:16.752Z,9.23
2017-08-12T02:17:44.272Z,10.57
2017-08-12T02:20:11.792Z,10.60
2017-08-12T02:22:40.071Z,9.30
2017-08-12T02:25:08.350Z,9.10
2017-08-12T02:27:36.651Z,11.83
2017-08-12T02:30:04.205Z,18.27
2017-08-12T02:32:31.717Z,10.60
2017-08-12T02:34:59.252Z,11.33
2017-08-12T02:37:26.757Z,15.10
2017-08-12T02:39:55.057Z,14.43
2017-08-12T02:42:22.577Z,13.70
2017-08-12T02:44:50.069Z,14.00
2017-08-12T02:47:17.595Z,16.43
2017-08-12T02:49:45.109Z,15.47
2017-08-12T02:52:12.610Z,16.70
2017-08-12T02:54:40.194Z,15.73
2017-08-12T02:57:08.489Z,18.70
2017-08-12T02:59:36.036Z,12.67
2017-08-12T03:02:03.547Z,16.70
2017-08-12T03:04:31.094Z,19.77
2017-08-12T03:06:58.611Z,17.93
2017-08-12T03:09:26.135Z,14.03
2017-08-12T03:11:53.648Z,17.97
2017-08-12T03:14:21.149Z,15.27
2017-08-12T03:16:48.636Z,19.50
2017-08-12T03:19:16.939Z,11.07
2017-08-12T03:21:44.448Z,14.37
2017-08-12T03:24:11.965Z,17.57
2017-08-12T03:26:39.500Z,16.07
2017-08-12T03:29:07.769Z,16.27
2017-08-12T03:31:36.068Z,14.70
2017-08-12T03:34:03.584Z,13.57
2017-08-12T03:36:31.102Z,13.60
2017-08-12T03:38:58.610Z,14.77
2017-08-12T03:41:26.908Z,21.73
2017-08-12T03:43:54.408Z,16.53
2017-08-12T03:46:21.929Z,16.10
2017-08-12T03:48:49.444Z,15.93
2017-08-12T03:51:16.952Z,22.90
2017-08-12T03:53:44.480Z,15.10
2017-08-12T03:56:12.769Z,20.70
2017-08-12T03:58:41.060Z,22.03
2017-08-12T04:01:08.581Z,22.77
2017-08-12T04:03:36.101Z,19.23
2017-08-12T04:06:03.600Z,24.30
2017-08-12T04:08:31.120Z,17.30
2017-08-12T04:10:58.640Z,23.73
2017-08-12T04:13:26.958Z,20.33
2017-08-12T04:15:54.487Z,14.40
2017-08-12T04:18:22.004Z,20.10
2017-08-12T04:20:49.533Z,19.23
2017-08-12T04:23:17.032Z,14.00
2017-08-12T04:25:44.587Z,24.10
2017-08-12T04:28:12.105Z,22.53
2017-08-12T04:30:39.627Z,21.60
2017-08-12T04:33:07.925Z,19.00
2017-08-12T04:35:35.484Z,17.37
2017-08-12T04:38:03.067Z,20.03
2017-08-12T04:40:30.586Z,15.50
2017-08-12T04:42:58.870Z,17.87
2017-08-12T04:45:26.384Z,16.00
2017-08-12T04:47:54.035Z,15.90
2017-08-12T04:50:21.556Z,18.07
2017-08-12T04:52:49.057Z,23.33
2017-08-12T04:55:16.611Z,21.00
2017-08-12T04:57:44.130Z,29.87
2017-08-12T05:00:11.659Z,19.83
2017-08-12T05:02:39.221Z,23.87
2017-08-12T05:05:06.777Z,25.33
2017-08-12T05:07:34.277Z,25.00
2017-08-12T05:10:01.824Z,23.57
2017-08-12T05:12:29.342Z,25.67
2017-08-12T05:14:56.859Z,23.50
2017-08-12T05:17:24.388Z,25.23
2017-08-12T05:19:52.789Z,18.93
2017-08-12T05:22:20.328Z,19.17
2017-08-12T05:24:47.880Z,21.73
2017-08-12T05:27:16.157Z,18.40
2017-08-12T05:29:44.455Z,23.27
2017-08-12T05:32:11.991Z,24.83
2017-08-12T05:34:40.267Z,22.83
2017-08-12T05:37:08.561Z,17.70
2017-08-12T05:39:36.103Z,15.00
2017-08-12T05:42:04.378Z,17.60
2017-08-12T05:44:31.877Z,16.30
2017-08-12T05:46:59.407Z,20.00
2017-08-12T05:49:27.710Z,18.30
2017-08-12T05:51:55.217Z,15.40
2017-08-12T05:54:22.751Z,12.13
2017-08-12T05:56:50.248Z,13.93
2017-08-12T05:59:18.525Z,17.10
2017-08-12T06:01:46.818Z,13.37
2017-08-12T06:04:15.094Z,14.13
2017-08-12T06:06:43.365Z,10.87
2017-08-12T06:09:11.669Z,12.23
2017-08-12T06:11:39.179Z,11.07
2017-08-12T06:14:06.688Z,14.00
2017-08-12T06:16:34.221Z,11.50
2017-08-12T06:19:02.493Z,16.93
2017-08-12T06:21:30.765Z,14.13
2017-08-12T06:23:59.079Z,14.63
2017-08-12T06:26:26.604Z,11.63
2017-08-12T06:28:54.884Z,14.50
2017-08-12T06:31:23.185Z,9.93
2017-08-12T06:33:50.708Z,17.73
2017-08-12T06:36:18.990Z,17.77
2017-08-12T06:38:47.501Z,13.63
2017-08-12T06:41:15.001Z,11.43
2017-08-12T06:43:42.512Z,12.47
2017-08-12T06:46:10.038Z,11.80
2017-08-12T06:48:37.536Z,15.00
2017-08-12T06:51:05.060Z,15.40
2017-08-12T06:53:32.585Z,14.10
2017-08-12T06:56:00.088Z,16.30
2017-08-12T06:58:27.639Z,15.60
2017-08-12T07:00:55.168Z,13.20
2017-08-12T07:03:22.680Z,23.07
2017-08-12T07:05:50.188Z,17.43
2017-08-12T07:08:17.739Z,19.23
2017-08-12T07:10:45.241Z,14.83
2017-08-12T07:13:13.562Z,17.27
2017-08-12T07:15:41.085Z,26.47
2017-08-12T07:18:09.380Z,17.90
2017-08-12T07:20:36.904Z,16.87
2017-08-12T07:23:04.439Z,13.27
2017-08-12T07:25:31.937Z,18.70
2017-08-12T07:28:00.227Z,18.10
2017-08-12T07:30:27.776Z,14.87
2017-08-12T07:32:56.056Z,18.43
2017-08-12T07:35:23.587Z,18.93
2017-08-12T07:37:51.120Z,19.60
2017-08-12T07:40:18.643Z,17.23
2017-08-12T07:42:46.171Z,18.17
2017-08-12T07:45:13.708Z,18.40
2017-08-12T07:47:41.207Z,20.43
2017-08-12T07:50:09.501Z,19.03
2017-08-12T07:52:37.057Z,20.23
2017-08-12T07:55:04.568Z,23.63
2017-08-12T07:57:32.095Z,21.80
2017-08-12T07:59:59.643Z,17.73
2017-08-12T08:02:27.168Z,22.33
2017-08-12T08:04:55.451Z,21.47
2017-08-12T08:07:23.769Z,16.60
2017-08-12T08:09:51.296Z,24.47
2017-08-12T08:12:18.819Z,21.80
2017-08-12T08:14:46.358Z,14.07
2017-08-12T08:17:13.877Z,21.27
2017-08-12T08:19:41.385Z,32.73
2017-08-12T08:22:08.907Z,25.53
2017-08-12T08:24:36.428Z,30.33
2017-08-12T08:27:03.950Z,25.63
2017-08-12T08:29:31.500Z,20.87
2017-08-12T08:31:59.001Z,24.87
2017-08-12T08:34:26.501Z,16.07
2017-08-12T08:36:54.090Z,19.33
2017-08-12T08:39:21.604Z,13.93
2017-08-12T08:41:49.888Z,16.20
2017-08-12T08:44:17.447Z,14.10
2017-08-12T08:46:44.976Z,18.53
2017-08-12T08:49:13.267Z,17.57
2017-08-12T08:51:41.579Z,13.73
2017-08-12T08:54:09.112Z,18.93
2017-08-12T08:56:36.618Z,18.77
2017-08-12T08:59:04.149Z,12.60
2017-08-12T09:01:31.648Z,18.90
2017-08-12T09:03:59.148Z,16.97
2017-08-12T09:06:26.712Z,19.00
2017-08-12T09:08:54.226Z,16.63
2017-08-12T09:11:21.725Z,19.93
2017-08-12T09:13:49.261Z,19.43
2017-08-12T09:16:16.784Z,14.37
2017-08-12T09:18:44.293Z,15.27
2017-08-12T09:21:12.860Z,19.23
2017-08-12T09:23:40.361Z,15.97
2017-08-12T09:26:07.880Z,13.93
2017-08-12T09:28:36.195Z,17.70
2017-08-12T09:31:03.790Z,16.50
2017-08-12T09:33:31.303Z,15.47
2017-08-12T09:35:58.858Z,15.70
2017-08-12T09:38:26.377Z,22.77
2017-08-12T09:40:53.877Z,14.83
2017-08-12T09:43:21.439Z,17.43
2017-08-12T09:45:49.167Z,14.50
2017-08-12T09:48:16.748Z,19.97
2017-08-12T09:50:45.108Z,18.40
2017-08-12T09:53:12.627Z,15.13
2017-08-12T09:55:40.145Z,14.30
2017-08-12T09:58:08.457Z,12.83
2017-08-12T10:00:35.968Z,17.53
2017-08-12T10:03:03.494Z,17.43
2017-08-12T10:05:31.040Z,19.43
2017-08-12T10:07:58.557Z,14.20
2017-08-12T10:10:26.828Z,14.50
2017-08-12T10:12:55.151Z,15.27
2017-08-12T10:15:22.683Z,15.20
2017-08-12T10:17:50.206Z,15.63
2017-08-12T10:20:17.728Z,22.77
2017-08-12T10:22:45.229Z,17.87
2017-08-12T10:25:12.788Z,24.40
2017-08-12T10:27:40.337Z,20.97
2017-08-12T10:30:07.878Z,19.83
2017-08-12T10:32:35.389Z,22.17
2017-08-12T10:35:03.674Z,24.73
2017-08-12T10:37:31.219Z,22.00
2017-08-12T10:39:59.519Z,23.77
2017-08-12T10:42:27.029Z,21.70
2017-08-12T10:44:54.569Z,20.07
2017-08-12T10:47:22.088Z,17.43
2017-08-12T10:49:49.613Z,21.10
2017-08-12T10:52:17.121Z,20.30
2017-08-12T10:54:44.803Z,26.67
2017-08-12T10:57:12.372Z,23.57
2017-08-12T10:59:39.887Z,25.50
2017-08-12T11:02:07.411Z,20.97
2017-08-12T11:04:34.982Z,19.10
2017-08-12T11:07:03.275Z,19.47
2017-08-12T11:09:31.603Z,20.30
2017-08-12T11:11:59.144Z,20.47
2017-08-12T11:14:26.654Z,20.27
2017-08-12T11:16:54.948Z,27.70
2017-08-12T11:19:22.497Z,23.63
2017-08-12T11:21:50.781Z,22.70
2017-08-12T11:24:19.067Z,23.90
2017-08-12T11:26:46.602Z,29.13
2017-08-12T11:29:14.891Z,22.13
2017-08-12T11:31:42.424Z,16.17
2017-08-12T11:34:09.965Z,17.30
2017-08-12T11:36:37.495Z,15.50
2017-08-12T11:39:05.004Z,16.47
2017-08-12T11:41:32.555Z,17.53
2017-08-12T11:44:00.087Z,16.13
2017-08-12T11:46:27.620Z,15.70
2017-08-12T11:48:55.156Z,16.00
2017-08-12T11:51:23.427Z,15.07
2017-08-12T11:53:50.940Z,14.77
2017-08-12T11:56:18.499Z,17.07
2017-08-12T11:58:46.021Z,14.97
2017-08-12T12:01:14.312Z,12.37
2017-08-12T12:03:41.865Z,13.70
2017-08-12T12:06:09.379Z,10.30
2017-08-12T12:08:36.906Z,12.57
2017-08-12T12:11:04.428Z,10.87
2017-08-12T12:13:32.725Z,9.20
2017-08-12T12:16:00.230Z,9.70
2017-08-12T12:18:28.047Z,7.77
2017-08-12T12:20:55.576Z,8.83
2017-08-12T12:23:23.880Z,8.50
2017-08-12T12:25:51.427Z,8.50
2017-08-12T12:28:19.713Z,6.50
2017-08-12T12:30:48.805Z,10.00
2017-08-12T12:33:17.088Z,10.37
2017-08-12T12:35:45.296Z,8.73
2017-08-12T12:38:12.833Z,9.43
2017-08-12T12:40:40.355Z,11.00
2017-08-12T12:43:07.883Z,11.60
2017-08-12T12:45:35.436Z,12.00
2017-08-12T12:48:03.103Z,13.97
2017-08-12T12:50:30.613Z,12.57
2017-08-12T12:52:58.911Z,11.07
2017-08-12T12:55:26.428Z,11.30
2017-08-12T12:57:53.924Z,11.63
2017-08-12T13:00:21.459Z,10.73
2017-08-12T13:02:49.756Z,10.13
2017-08-12T13:05:17.287Z,10.07
2017-08-12T13:07:45.615Z,9.30
2017-08-12T13:10:13.140Z,10.53
2017-08-12T13:12:41.413Z,11.30
2017-08-12T13:15:09.728Z,10.70
2017-08-12T13:17:37.247Z,11.00
2017-08-12T13:20:05.539Z,12.70
2017-08-12T13:22:33.072Z,12.30
2017-08-12T13:25:00.569Z,11.83
2017-08-12T13:27:28.083Z,11.77
2017-08-12T13:29:55.601Z,12.57
2017-08-12T13:32:23.139Z,13.33
2017-08-12T13:34:50.669Z,11.63
2017-08-12T13:37:18.940Z,11.67
2017-08-12T13:39:46.772Z,11.80
2017-08-12T13:42:14.292Z,11.47
2017-08-12T13:44:41.797Z,10.90
2017-08-12T13:47:09.344Z,10.27
2017-08-12T13:49:36.847Z,9.30
2017-08-12T13:52:05.108Z,7.93
2017-08-12T13:54:32.704Z,9.37
2017-08-12T13:57:01.904Z,9.57
2017-08-12T13:59:29.408Z,11.13
2017-08-12T14:01:56.948Z,9.47
2017-08-12T14:04:24.449Z,8.80
2017-08-12T14:06:51.941Z,9.47
2017-08-12T14:09:19.490Z,10.07
2017-08-12T14:11:47.761Z,9.67
2017-08-12T14:14:16.066Z,9.93
2017-08-12T14:16:43.603Z,9.30
2017-08-12T14:19:11.888Z,8.20
2017-08-12T14:21:39.409Z,8.73
2017-08-12T14:24:06.936Z,9.23
2017-08-12T14:26:34.452Z,8.83
2017-08-12T14:29:02.742Z,7.57
2017-08-12T14:31:36.456Z,6.27
2017-08-12T14:34:05.657Z,6.93
2017-08-12T14:36:33.161Z,6.40
2017-08-12T14:39:00.671Z,6.10
2017-08-12T14:41:28.212Z,5.87
2017-08-12T14:43:55.716Z,6.37
2017-08-12T14:46:23.640Z,5.73
2017-08-12T14:48:51.913Z,5.77
2017-08-12T14:51:20.256Z,6.23
2017-08-12T14:53:47.752Z,6.00
2017-08-12T14:56:16.036Z,6.70
2017-08-12T14:58:43.551Z,6.60
2017-08-12T15:01:11.279Z,5.53
2017-08-12T15:03:38.781Z,5.80
2017-08-12T15:06:06.318Z,4.20
2017-08-12T15:08:33.831Z,5.13
2017-08-12T15:11:03.259Z,4.70
2017-08-12T15:13:30.785Z,14.40
2017-08-12T15:15:59.061Z,5.37
2017-08-12T15:18:28.183Z,5.57
2017-08-12T15:20:55.713Z,6.33
2017-08-12T15:23:23.969Z,7.07
2017-08-12T15:25:51.503Z,6.23
2017-08-12T15:28:19.089Z,7.03
2017-08-12T15:30:46.575Z,7.70
2017-08-12T15:33:15.576Z,6.90
2017-08-12T15:35:43.114Z,8.17
2017-08-12T15:38:10.604Z,7.13
2017-08-12T15:40:38.111Z,7.10
2017-08-12T15:43:06.549Z,8.20
2017-08-12T15:45:34.945Z,8.60
2017-08-12T15:48:02.433Z,7.53
2017-08-12T15:50:30.761Z,7.47
2017-08-12T15:52:58.495Z,11.03
2017-08-12T15:55:26.757Z,6.73
2017-08-12T15:57:54.272Z,5.60
2017-08-12T16:00:21.780Z,3.47
2017-08-12T16:02:49.276Z,3.57
2017-08-12T16:05:17.616Z,3.93
2017-08-12T16:07:45.720Z,3.60
2017-08-12T16:10:13.219Z,3.50
2017-08-12T16:12:41.078Z,2.80
2017-08-12T16:15:09.203Z,2.60
2017-08-12T16:17:36.732Z,2.37
2017-08-12T16:20:05.927Z,1.90
2017-08-12T16:22:35.588Z,1.50
2017-08-12T16:25:03.091Z,1.90
2017-08-12T16:27:30.927Z,4.07
2017-08-12T16:29:58.430Z,1.63
2017-08-12T16:32:25.935Z,1.80
2017-08-12T16:34:53.468Z,1.93
2017-08-12T16:37:21.743Z,1.63
2017-08-12T16:39:50.119Z,1.70
2017-08-12T16:42:18.490Z,1.90
2017-08-12T16:44:47.268Z,1.90
2017-08-12T16:47:15.933Z,2.17
2017-08-12T16:49:44.175Z,2.93
2017-08-12T16:52:11.724Z,1.87
2017-08-12T16:54:39.213Z,1.97
2017-08-12T16:57:06.721Z,1.80
2017-08-12T16:59:35.019Z,1.90
2017-08-12T17:02:02.536Z,2.07
2017-08-12T17:04:30.183Z,2.03
2017-08-12T17:06:58.551Z,3.50
2017-08-12T17:09:26.037Z,2.60
2017-08-12T17:11:53.875Z,2.37
2017-08-12T17:14:21.408Z,2.47
2017-08-12T17:16:48.931Z,2.63
2017-08-12T17:19:16.437Z,5.03
2017-08-12T17:21:43.969Z,2.60
2017-08-12T17:24:11.472Z,1.83
2017-08-12T17:26:38.991Z,2.40
2017-08-12T17:29:06.513Z,2.03
2017-08-12T17:31:35.338Z,1.77
2017-08-12T17:34:03.618Z,1.90
2017-08-12T17:36:31.441Z,1.80
2017-08-12T17:38:59.859Z,2.00
2017-08-12T17:41:28.147Z,1.90
2017-08-12T17:43:56.149Z,2.33
2017-08-12T17:46:23.654Z,3.70
2017-08-12T17:48:51.944Z,1.83
2017-08-12T17:51:19.615Z,1.67
2017-08-12T17:53:47.160Z,2.40
2017-08-12T17:56:15.443Z,1.80
2017-08-12T17:58:42.969Z,2.00
2017-08-12T18:01:11.413Z,2.33
2017-08-12T18:03:38.912Z,1.77
2017-08-12T18:06:07.370Z,2.03
2017-08-12T18:08:36.048Z,3.03
2017-08-12T18:11:03.563Z,3.17
2017-08-12T18:13:31.860Z,4.03
2017-08-12T18:15:59.369Z,2.40
2017-08-12T18:18:26.901Z,3.00
2017-08-12T18:20:54.467Z,2.33
2017-08-12T18:23:21.972Z,2.73
2017-08-12T18:25:50.548Z,3.10
2017-08-12T18:28:19.004Z,2.53
2017-08-12T18:30:46.511Z,3.30
2017-08-12T18:33:14.029Z,2.83
2017-08-12T18:35:41.550Z,3.90
2017-08-12T18:38:09.050Z,3.53
2017-08-12T18:40:37.687Z,2.70
2017-08-12T18:43:05.891Z,3.00
2017-08-12T18:45:33.399Z,3.77
2017-08-12T18:48:01.558Z,2.97
2017-08-12T18:50:29.836Z,2.70
2017-08-12T18:52:58.112Z,2.90
2017-08-12T18:55:26.395Z,3.07
2017-08-12T18:57:54.272Z,3.93
2017-08-12T19:00:21.783Z,5.47
2017-08-12T19:02:49.280Z,4.37
2017-08-12T19:05:18.386Z,7.33
2017-08-12T19:07:46.353Z,3.63
2017-08-12T19:10:14.488Z,5.50
2017-08-12T19:12:43.488Z,4.40
2017-08-12T19:15:10.985Z,4.23
2017-08-12T19:17:40.248Z,4.03
2017-08-12T19:20:07.769Z,7.90
2017-08-12T19:22:36.190Z,5.43
2017-08-12T19:25:03.680Z,7.77
2017-08-12T19:27:31.203Z,7.97
2017-08-12T19:29:58.704Z,7.37
2017-08-12T19:32:27.396Z,7.90
2017-08-12T19:34:55.455Z,7.97
2017-08-12T19:37:22.961Z,8.60
2017-08-12T19:39:50.457Z,9.23
2017-08-12T19:42:18.771Z,10.37
2017-08-12T19:44:46.299Z,10.23
2017-08-12T19:47:13.830Z,10.10
2017-08-12T19:49:42.364Z,9.80
2017-08-12T19:52:09.877Z,9.53
2017-08-12T19:54:38.165Z,10.37
2017-08-12T19:57:06.488Z,10.83
2017-08-12T19:59:33.992Z,10.70
2017-08-12T20:02:02.278Z,10.43
2017-08-12T20:04:30.594Z,9.97
2017-08-12T20:06:58.268Z,10.70
2017-08-12T20:09:25.760Z,11.67
2017-08-12T20:11:53.292Z,12.10
2017-08-12T20:14:20.847Z,11.53
2017-08-12T20:16:49.173Z,11.40
2017-08-12T20:19:17.508Z,11.17
2017-08-12T20:21:45.019Z,11.57
2017-08-12T20:24:12.540Z,11.27
2017-08-12T20:26:40.075Z,10.00
2017-08-12T20:29:07.573Z,10.83
2017-08-12T20:31:35.084Z,9.60
2017-08-12T20:34:02.624Z,10.87
2017-08-12T20:36:30.148Z,8.90
2017-08-12T20:38:57.673Z,9.70
2017-08-12T20:41:25.189Z,10.93
2017-08-12T20:43:52.715Z,9.47
2017-08-12T20:46:20.217Z,9.07
2017-08-12T20:48:47.740Z,9.10
2017-08-12T20:51:15.254Z,8.93
2017-08-12T20:53:42.763Z,9.07
2017-08-12T20:56:11.071Z,10.20
2017-08-12T20:58:38.557Z,8.37
2017-08-12T21:01:06.057Z,11.10
2017-08-12T21:03:34.389Z,14.13
2017-08-12T21:06:01.891Z,9.17
2017-08-12T21:08:29.403Z,6.90
2017-08-12T21:10:56.940Z,10.77
2017-08-12T21:13:24.463Z,10.07
2017-08-12T21:15:51.978Z,7.50
2017-08-12T21:18:19.521Z,7.30
2017-08-12T21:20:47.039Z,7.93
2017-08-12T21:23:14.591Z,9.37
2017-08-12T21:25:42.134Z,11.40
2017-08-12T21:28:09.652Z,7.43
2017-08-12T21:30:37.171Z,10.73
2017-08-12T21:33:04.693Z,8.43
2017-08-12T21:35:32.193Z,8.67
2017-08-12T21:37:59.708Z,13.97
2017-08-12T21:40:27.366Z,7.03
2017-08-12T21:42:54.869Z,6.90
2017-08-12T21:45:22.384Z,6.67
2017-08-12T21:47:49.916Z,11.30
2017-08-12T21:50:17.422Z,6.30
2017-08-12T21:52:44.936Z,6.87
2017-08-12T21:55:12.460Z,6.73
2017-08-12T21:57:39.956Z,7.67
2017-08-12T22:00:07.448Z,6.10
2017-08-12T22:02:34.995Z,9.30
2017-08-12T22:05:02.504Z,4.97
2017-08-12T22:07:30.018Z,5.87
2017-08-12T22:09:57.552Z,6.97
2017-08-12T22:12:25.045Z,6.00
2017-08-12T22:14:52.560Z,5.07
2017-08-12T22:17:20.095Z,8.60
2017-08-12T22:22:40.897Z,4.63
2017-08-12T22:25:09.233Z,5.27
2017-08-12T22:27:36.748Z,5.60
2017-08-12T22:30:04.286Z,15.40
2017-08-12T22:32:32.617Z,8.73
2017-08-12T22:35:00.135Z,7.80
2017-08-12T22:37:27.652Z,6.73
2017-08-12T22:39:55.213Z,10.17
2017-08-12T22:42:22.728Z,7.20
2017-08-12T22:44:50.251Z,6.80
2017-08-12T22:47:17.822Z,8.40
2017-08-12T22:49:46.126Z,10.20
2017-08-12T22:52:13.638Z,7.30
2017-08-12T22:54:41.367Z,12.13
2017-08-12T22:57:08.876Z,8.53
2017-08-12T22:59:37.151Z,7.53
2017-08-12T23:02:05.454Z,8.50
2017-08-12T23:04:32.984Z,8.43
2017-08-12T23:07:00.518Z,5.47
2017-08-12T23:09:28.057Z,5.90
2017-08-12T23:11:55.599Z,8.93
2017-08-12T23:14:23.119Z,6.80
2017-08-12T23:16:50.854Z,5.47
2017-08-12T23:19:18.382Z,9.23
2017-08-12T23:21:45.910Z,7.47
2017-08-12T23:24:14.446Z,10.70
2017-08-12T23:26:41.975Z,13.60
2017-08-12T23:29:09.555Z,9.07
2017-08-12T23:31:37.091Z,12.77
2017-08-12T23:34:04.607Z,7.83
2017-08-12T23:36:32.118Z,16.17
2017-08-12T23:38:59.667Z,8.23
2017-08-12T23:41:27.217Z,10.83
2017-08-12T23:43:54.762Z,6.70
2017-08-12T23:46:23.209Z,9.30
2017-08-12T23:48:50.753Z,7.53
2017-08-12T23:51:18.274Z,5.80
2017-08-12T23:53:46.595Z,10.70
2017-08-12T23:56:14.120Z,13.77
2017-08-12T23:58:41.658Z,11.47
